sensor_id;sensor_type;location;lat;lon;timestamp;P1;durP1;ratioP1;P2;durP2;ratioP2
19802;SDS011;66074;50.764;6.090;2023-02-28T00:00:51;4.07;;;2.47;;
19802;SDS011;66074;50.764;6.090;2023-02-28T00:03:17;5.53;;;2.78;;
19802;SDS011;66074;50.764;6.090;2023-02-28T00:05:43;6.18;;;2.65;;
19802;SDS011;66074;50.764;6.090;2023-02-28T00:08:09;3.03;;;2.38;;
19802;SDS011;66074;50.764;6.090;2023-02-28T00:10:34;3.22;;;2.80;;
19802;SDS011;66074;50.764;6.090;2023-02-28T00:13:02;3.75;;;2.50;;
19802;SDS011;66074;50.764;6.090;2023-02-28T00:15:29;3.42;;;2.55;;
19802;SDS011;66074;50.764;6.090;2023-02-28T00:17:55;4.72;;;2.30;;
19802;SDS011;66074;50.764;6.090;2023-02-28T00:20:21;3.42;;;2.13;;
19802;SDS011;66074;50.764;6.090;2023-02-28T00:22:48;3.20;;;2.65;;
19802;SDS011;66074;50.764;6.090;2023-02-28T00:25:16;2.97;;;2.40;;
19802;SDS011;66074;50.764;6.090;2023-02-28T00:27:44;4.75;;;2.53;;
19802;SDS011;66074;50.764;6.090;2023-02-28T00:30:12;3.72;;;2.30;;
19802;SDS011;66074;50.764;6.090;2023-02-28T00:32:40;3.70;;;2.30;;
19802;SDS011;66074;50.764;6.090;2023-02-28T00:35:06;5.07;;;2.47;;
19802;SDS011;66074;50.764;6.090;2023-02-28T00:37:32;3.97;;;2.45;;
19802;SDS011;66074;50.764;6.090;2023-02-28T00:39:58;6.70;;;2.00;;
19802;SDS011;66074;50.764;6.090;2023-02-28T00:42:24;4.72;;;2.40;;
19802;SDS011;66074;50.764;6.090;2023-02-28T00:44:50;4.38;;;2.00;;
19802;SDS011;66074;50.764;6.090;2023-02-28T00:47:15;4.50;;;2.28;;
19802;SDS011;66074;50.764;6.090;2023-02-28T00:49:41;4.85;;;2.45;;
19802;SDS011;66074;50.764;6.090;2023-02-28T00:52:07;3.55;;;2.33;;
19802;SDS011;66074;50.764;6.090;2023-02-28T00:54:32;5.30;;;2.17;;
19802;SDS011;66074;50.764;6.090;2023-02-28T00:56:59;2.83;;;2.20;;
19802;SDS011;66074;50.764;6.090;2023-02-28T00:59:25;4.95;;;2.33;;
19802;SDS011;66074;50.764;6.090;2023-02-28T01:01:50;2.60;;;2.20;;
19802;SDS011;66074;50.764;6.090;2023-02-28T01:04:16;5.70;;;2.55;;
19802;SDS011;66074;50.764;6.090;2023-02-28T01:06:42;3.03;;;2.38;;
19802;SDS011;66074;50.764;6.090;2023-02-28T01:09:08;2.28;;;1.80;;
19802;SDS011;66074;50.764;6.090;2023-02-28T01:11:34;3.10;;;2.28;;
19802;SDS011;66074;50.764;6.090;2023-02-28T01:14:00;3.42;;;1.92;;
19802;SDS011;66074;50.764;6.090;2023-02-28T01:16:26;3.10;;;2.10;;
19802;SDS011;66074;50.764;6.090;2023-02-28T01:18:52;5.03;;;2.38;;
19802;SDS011;66074;50.764;6.090;2023-02-28T01:21:18;2.55;;;1.80;;
19802;SDS011;66074;50.764;6.090;2023-02-28T01:23:46;3.00;;;1.90;;
19802;SDS011;66074;50.764;6.090;2023-02-28T01:26:14;2.53;;;1.98;;
19802;SDS011;66074;50.764;6.090;2023-02-28T01:28:44;3.47;;;1.85;;
19802;SDS011;66074;50.764;6.090;2023-02-28T01:31:10;4.05;;;1.80;;
19802;SDS011;66074;50.764;6.090;2023-02-28T01:33:36;4.25;;;1.95;;
19802;SDS011;66074;50.764;6.090;2023-02-28T01:38:34;2.72;;;1.70;;
19802;SDS011;66074;50.764;6.090;2023-02-28T01:41:00;2.15;;;1.83;;
19802;SDS011;66074;50.764;6.090;2023-02-28T01:43:30;5.53;;;1.98;;
19802;SDS011;66074;50.764;6.090;2023-02-28T01:46:15;4.30;;;1.98;;
19802;SDS011;66074;50.764;6.090;2023-02-28T01:48:45;2.20;;;1.85;;
19802;SDS011;66074;50.764;6.090;2023-02-28T01:51:20;2.35;;;1.90;;
19802;SDS011;66074;50.764;6.090;2023-02-28T01:53:49;3.58;;;1.98;;
19802;SDS011;66074;50.764;6.090;2023-02-28T01:56:19;3.33;;;2.00;;
19802;SDS011;66074;50.764;6.090;2023-02-28T01:58:49;5.10;;;1.90;;
19802;SDS011;66074;50.764;6.090;2023-02-28T02:01:17;3.00;;;1.80;;
19802;SDS011;66074;50.764;6.090;2023-02-28T02:03:48;3.03;;;2.20;;
19802;SDS011;66074;50.764;6.090;2023-02-28T02:06:30;4.15;;;2.30;;
19802;SDS011;66074;50.764;6.090;2023-02-28T02:09:02;2.97;;;1.85;;
19802;SDS011;66074;50.764;6.090;2023-02-28T02:11:28;2.67;;;1.77;;
19802;SDS011;66074;50.764;6.090;2023-02-28T02:17:03;2.33;;;2.10;;
19802;SDS011;66074;50.764;6.090;2023-02-28T02:25:49;4.65;;;2.50;;
19802;SDS011;66074;50.764;6.090;2023-02-28T02:36:55;3.75;;;2.00;;
19802;SDS011;66074;50.764;6.090;2023-02-28T02:39:34;3.28;;;2.17;;
19802;SDS011;66074;50.764;6.090;2023-02-28T02:42:02;2.70;;;2.17;;
19802;SDS011;66074;50.764;6.090;2023-02-28T02:44:40;3.42;;;1.90;;
19802;SDS011;66074;50.764;6.090;2023-02-28T02:47:14;3.22;;;2.20;;
19802;SDS011;66074;50.764;6.090;2023-02-28T02:49:43;4.63;;;2.72;;
19802;SDS011;66074;50.764;6.090;2023-02-28T02:52:14;2.90;;;2.22;;
19802;SDS011;66074;50.764;6.090;2023-02-28T02:54:44;3.25;;;2.13;;
19802;SDS011;66074;50.764;6.090;2023-02-28T02:57:15;3.47;;;2.33;;
19802;SDS011;66074;50.764;6.090;2023-02-28T02:59:52;3.42;;;2.17;;
19802;SDS011;66074;50.764;6.090;2023-02-28T03:02:20;4.63;;;2.40;;
19802;SDS011;66074;50.764;6.090;2023-02-28T03:04:53;5.50;;;2.08;;
19802;SDS011;66074;50.764;6.090;2023-02-28T03:07:27;2.92;;;2.08;;
19802;SDS011;66074;50.764;6.090;2023-02-28T03:09:53;3.67;;;2.50;;
19802;SDS011;66074;50.764;6.090;2023-02-28T03:12:20;3.35;;;2.20;;
19802;SDS011;66074;50.764;6.090;2023-02-28T03:14:56;3.63;;;2.60;;
19802;SDS011;66074;50.764;6.090;2023-02-28T03:20:36;4.78;;;2.72;;
19802;SDS011;66074;50.764;6.090;2023-02-28T03:23:45;5.00;;;2.40;;
19802;SDS011;66074;50.764;6.090;2023-02-28T03:26:26;3.13;;;1.80;;
19802;SDS011;66074;50.764;6.090;2023-02-28T03:31:52;4.35;;;2.88;;
19802;SDS011;66074;50.764;6.090;2023-02-28T03:34:28;3.90;;;2.25;;
19802;SDS011;66074;50.764;6.090;2023-02-28T03:37:02;3.33;;;2.42;;
19802;SDS011;66074;50.764;6.090;2023-02-28T03:42:25;8.57;;;4.40;;
19802;SDS011;66074;50.764;6.090;2023-02-28T03:44:55;3.55;;;2.53;;
19802;SDS011;66074;50.764;6.090;2023-02-28T03:47:25;4.05;;;2.40;;
19802;SDS011;66074;50.764;6.090;2023-02-28T03:53:11;4.60;;;2.97;;
19802;SDS011;66074;50.764;6.090;2023-02-28T03:55:48;3.50;;;2.15;;
19802;SDS011;66074;50.764;6.090;2023-02-28T03:58:24;5.95;;;2.97;;
19802;SDS011;66074;50.764;6.090;2023-02-28T04:01:09;8.80;;;3.38;;
19802;SDS011;66074;50.764;6.090;2023-02-28T04:03:43;5.43;;;3.38;;
19802;SDS011;66074;50.764;6.090;2023-02-28T04:06:13;5.93;;;3.22;;
19802;SDS011;66074;50.764;6.090;2023-02-28T04:08:41;3.05;;;2.05;;
19802;SDS011;66074;50.764;6.090;2023-02-28T04:11:12;1.90;;;1.65;;
19802;SDS011;66074;50.764;6.090;2023-02-28T04:13:54;2.60;;;2.20;;
19802;SDS011;66074;50.764;6.090;2023-02-28T04:16:20;2.40;;;2.20;;
19802;SDS011;66074;50.764;6.090;2023-02-28T04:18:46;2.47;;;2.10;;
19802;SDS011;66074;50.764;6.090;2023-02-28T04:21:12;3.30;;;2.13;;
19802;SDS011;66074;50.764;6.090;2023-02-28T04:23:38;4.55;;;2.75;;
19802;SDS011;66074;50.764;6.090;2023-02-28T04:26:03;3.42;;;1.92;;
19802;SDS011;66074;50.764;6.090;2023-02-28T04:28:30;6.93;;;2.35;;
19802;SDS011;66074;50.764;6.090;2023-02-28T04:30:58;4.60;;;2.25;;
19802;SDS011;66074;50.764;6.090;2023-02-28T04:33:25;5.13;;;2.20;;
19802;SDS011;66074;50.764;6.090;2023-02-28T04:35:58;4.07;;;2.15;;
19802;SDS011;66074;50.764;6.090;2023-02-28T04:38:24;4.97;;;2.97;;
19802;SDS011;66074;50.764;6.090;2023-02-28T04:40:50;2.97;;;2.33;;
19802;SDS011;66074;50.764;6.090;2023-02-28T04:43:16;4.00;;;2.22;;
19802;SDS011;66074;50.764;6.090;2023-02-28T04:45:41;3.22;;;2.20;;
19802;SDS011;66074;50.764;6.090;2023-02-28T04:48:07;4.88;;;2.88;;
19802;SDS011;66074;50.764;6.090;2023-02-28T04:50:33;3.72;;;2.42;;
19802;SDS011;66074;50.764;6.090;2023-02-28T04:52:58;3.92;;;2.03;;
19802;SDS011;66074;50.764;6.090;2023-02-28T04:55:24;3.30;;;1.98;;
19802;SDS011;66074;50.764;6.090;2023-02-28T04:57:49;3.70;;;2.13;;
19802;SDS011;66074;50.764;6.090;2023-02-28T05:00:15;4.28;;;2.35;;
19802;SDS011;66074;50.764;6.090;2023-02-28T05:02:41;4.80;;;2.33;;
19802;SDS011;66074;50.764;6.090;2023-02-28T05:05:07;4.25;;;2.20;;
19802;SDS011;66074;50.764;6.090;2023-02-28T05:07:33;5.65;;;2.42;;
19802;SDS011;66074;50.764;6.090;2023-02-28T05:09:59;4.28;;;2.30;;
19802;SDS011;66074;50.764;6.090;2023-02-28T05:12:24;3.25;;;2.42;;
19802;SDS011;66074;50.764;6.090;2023-02-28T05:14:50;4.30;;;2.33;;
19802;SDS011;66074;50.764;6.090;2023-02-28T05:17:16;7.68;;;1.90;;
19802;SDS011;66074;50.764;6.090;2023-02-28T05:19:41;3.40;;;2.60;;
19802;SDS011;66074;50.764;6.090;2023-02-28T05:22:12;3.97;;;2.30;;
19802;SDS011;66074;50.764;6.090;2023-02-28T05:24:41;4.68;;;2.45;;
19802;SDS011;66074;50.764;6.090;2023-02-28T05:27:07;6.28;;;2.47;;
19802;SDS011;66074;50.764;6.090;2023-02-28T05:29:34;3.20;;;2.45;;
19802;SDS011;66074;50.764;6.090;2023-02-28T05:32:06;4.38;;;2.63;;
19802;SDS011;66074;50.764;6.090;2023-02-28T05:34:36;2.83;;;2.58;;
19802;SDS011;66074;50.764;6.090;2023-02-28T05:37:06;3.80;;;2.53;;
19802;SDS011;66074;50.764;6.090;2023-02-28T05:39:36;3.40;;;2.20;;
19802;SDS011;66074;50.764;6.090;2023-02-28T05:42:01;4.72;;;2.60;;
19802;SDS011;66074;50.764;6.090;2023-02-28T05:44:27;5.20;;;2.80;;
19802;SDS011;66074;50.764;6.090;2023-02-28T05:46:53;4.22;;;2.85;;
19802;SDS011;66074;50.764;6.090;2023-02-28T05:49:19;4.13;;;2.53;;
19802;SDS011;66074;50.764;6.090;2023-02-28T05:51:44;3.00;;;2.60;;
19802;SDS011;66074;50.764;6.090;2023-02-28T05:54:10;4.32;;;2.88;;
19802;SDS011;66074;50.764;6.090;2023-02-28T05:56:35;3.47;;;2.83;;
19802;SDS011;66074;50.764;6.090;2023-02-28T05:59:04;4.72;;;2.95;;
19802;SDS011;66074;50.764;6.090;2023-02-28T06:04:00;3.03;;;2.53;;
19802;SDS011;66074;50.764;6.090;2023-02-28T06:06:27;3.75;;;2.60;;
19802;SDS011;66074;50.764;6.090;2023-02-28T06:08:53;7.03;;;3.25;;
19802;SDS011;66074;50.764;6.090;2023-02-28T06:11:19;3.42;;;2.58;;
19802;SDS011;66074;50.764;6.090;2023-02-28T06:13:45;7.93;;;2.92;;
19802;SDS011;66074;50.764;6.090;2023-02-28T06:16:11;4.00;;;2.80;;
19802;SDS011;66074;50.764;6.090;2023-02-28T06:18:37;11.43;;;9.15;;
19802;SDS011;66074;50.764;6.090;2023-02-28T06:21:03;6.97;;;3.50;;
19802;SDS011;66074;50.764;6.090;2023-02-28T06:23:28;3.58;;;3.00;;
19802;SDS011;66074;50.764;6.090;2023-02-28T06:25:54;3.60;;;3.15;;
19802;SDS011;66074;50.764;6.090;2023-02-28T06:28:23;5.40;;;2.90;;
19802;SDS011;66074;50.764;6.090;2023-02-28T06:30:49;4.05;;;3.03;;
19802;SDS011;66074;50.764;6.090;2023-02-28T06:33:15;5.40;;;2.95;;
19802;SDS011;66074;50.764;6.090;2023-02-28T06:35:43;8.88;;;3.50;;
19802;SDS011;66074;50.764;6.090;2023-02-28T06:38:11;5.55;;;2.38;;
19802;SDS011;66074;50.764;6.090;2023-02-28T06:40:36;5.00;;;3.28;;
19802;SDS011;66074;50.764;6.090;2023-02-28T06:43:02;4.47;;;3.80;;
19802;SDS011;66074;50.764;6.090;2023-02-28T06:45:28;3.63;;;3.30;;
19802;SDS011;66074;50.764;6.090;2023-02-28T06:47:53;6.20;;;3.72;;
19802;SDS011;66074;50.764;6.090;2023-02-28T06:50:20;7.68;;;4.00;;
19802;SDS011;66074;50.764;6.090;2023-02-28T06:52:45;5.43;;;3.58;;
19802;SDS011;66074;50.764;6.090;2023-02-28T06:55:11;6.13;;;3.42;;
19802;SDS011;66074;50.764;6.090;2023-02-28T06:57:37;4.72;;;3.40;;
19802;SDS011;66074;50.764;6.090;2023-02-28T07:00:06;6.30;;;3.13;;
19802;SDS011;66074;50.764;6.090;2023-02-28T07:02:33;5.55;;;3.17;;
19802;SDS011;66074;50.764;6.090;2023-02-28T07:05:03;5.00;;;3.63;;
19802;SDS011;66074;50.764;6.090;2023-02-28T07:07:29;5.40;;;3.72;;
19802;SDS011;66074;50.764;6.090;2023-02-28T07:09:55;10.30;;;3.90;;
19802;SDS011;66074;50.764;6.090;2023-02-28T07:12:21;6.68;;;3.20;;
19802;SDS011;66074;50.764;6.090;2023-02-28T07:14:47;4.78;;;3.25;;
19802;SDS011;66074;50.764;6.090;2023-02-28T07:17:12;5.60;;;3.75;;
19802;SDS011;66074;50.764;6.090;2023-02-28T07:19:38;7.10;;;3.90;;
19802;SDS011;66074;50.764;6.090;2023-02-28T07:22:04;7.57;;;3.60;;
19802;SDS011;66074;50.764;6.090;2023-02-28T07:24:30;6.07;;;3.80;;
19802;SDS011;66074;50.764;6.090;2023-02-28T07:26:56;4.50;;;2.97;;
19802;SDS011;66074;50.764;6.090;2023-02-28T07:29:22;5.10;;;3.15;;
19802;SDS011;66074;50.764;6.090;2023-02-28T07:31:48;5.35;;;3.17;;
19802;SDS011;66074;50.764;6.090;2023-02-28T07:34:15;4.80;;;3.42;;
19802;SDS011;66074;50.764;6.090;2023-02-28T07:36:41;7.43;;;3.47;;
19802;SDS011;66074;50.764;6.090;2023-02-28T07:39:06;4.97;;;3.03;;
19802;SDS011;66074;50.764;6.090;2023-02-28T07:41:34;7.00;;;3.22;;
19802;SDS011;66074;50.764;6.090;2023-02-28T07:44:04;9.60;;;3.47;;
19802;SDS011;66074;50.764;6.090;2023-02-28T07:46:30;6.15;;;3.78;;
19802;SDS011;66074;50.764;6.090;2023-02-28T07:49:00;4.35;;;3.30;;
19802;SDS011;66074;50.764;6.090;2023-02-28T07:51:27;7.18;;;3.70;;
19802;SDS011;66074;50.764;6.090;2023-02-28T07:53:53;5.88;;;2.97;;
19802;SDS011;66074;50.764;6.090;2023-02-28T07:56:19;5.10;;;4.13;;
19802;SDS011;66074;50.764;6.090;2023-02-28T07:58:45;5.20;;;3.42;;
19802;SDS011;66074;50.764;6.090;2023-02-28T08:01:11;3.15;;;2.85;;
19802;SDS011;66074;50.764;6.090;2023-02-28T08:03:37;5.18;;;3.63;;
19802;SDS011;66074;50.764;6.090;2023-02-28T08:06:04;4.50;;;3.65;;
19802;SDS011;66074;50.764;6.090;2023-02-28T08:08:31;3.85;;;3.10;;
19802;SDS011;66074;50.764;6.090;2023-02-28T08:11:00;4.40;;;2.80;;
19802;SDS011;66074;50.764;6.090;2023-02-28T08:13:28;5.50;;;2.60;;
19802;SDS011;66074;50.764;6.090;2023-02-28T08:15:54;6.32;;;2.70;;
19802;SDS011;66074;50.764;6.090;2023-02-28T08:18:21;3.40;;;3.03;;
19802;SDS011;66074;50.764;6.090;2023-02-28T08:20:47;4.95;;;2.80;;
19802;SDS011;66074;50.764;6.090;2023-02-28T08:23:13;2.95;;;2.47;;
19802;SDS011;66074;50.764;6.090;2023-02-28T08:25:39;4.68;;;2.28;;
19802;SDS011;66074;50.764;6.090;2023-02-28T08:28:05;5.68;;;3.05;;
19802;SDS011;66074;50.764;6.090;2023-02-28T08:30:31;4.80;;;2.38;;
19802;SDS011;66074;50.764;6.090;2023-02-28T08:32:56;4.60;;;2.50;;
19802;SDS011;66074;50.764;6.090;2023-02-28T08:35:22;3.33;;;3.03;;
19802;SDS011;66074;50.764;6.090;2023-02-28T08:37:48;8.10;;;3.00;;
19802;SDS011;66074;50.764;6.090;2023-02-28T08:40:14;3.20;;;2.75;;
19802;SDS011;66074;50.764;6.090;2023-02-28T08:42:46;2.95;;;2.35;;
19802;SDS011;66074;50.764;6.090;2023-02-28T08:45:13;3.72;;;2.83;;
19802;SDS011;66074;50.764;6.090;2023-02-28T08:47:39;5.47;;;2.80;;
19802;SDS011;66074;50.764;6.090;2023-02-28T08:50:07;2.85;;;1.80;;
19802;SDS011;66074;50.764;6.090;2023-02-28T08:52:33;3.10;;;2.55;;
19802;SDS011;66074;50.764;6.090;2023-02-28T08:54:58;3.53;;;2.92;;
19802;SDS011;66074;50.764;6.090;2023-02-28T08:57:24;2.97;;;2.20;;
19802;SDS011;66074;50.764;6.090;2023-02-28T08:59:53;2.05;;;1.85;;
19802;SDS011;66074;50.764;6.090;2023-02-28T09:02:18;2.08;;;1.88;;
19802;SDS011;66074;50.764;6.090;2023-02-28T09:04:44;4.75;;;2.40;;
19802;SDS011;66074;50.764;6.090;2023-02-28T09:07:13;3.72;;;2.03;;
19802;SDS011;66074;50.764;6.090;2023-02-28T09:09:38;3.75;;;2.08;;
19802;SDS011;66074;50.764;6.090;2023-02-28T09:12:20;2.42;;;1.77;;
19802;SDS011;66074;50.764;6.090;2023-02-28T09:14:47;4.43;;;4.03;;
19802;SDS011;66074;50.764;6.090;2023-02-28T09:17:12;2.95;;;2.15;;
19802;SDS011;66074;50.764;6.090;2023-02-28T09:19:38;3.00;;;2.08;;
19802;SDS011;66074;50.764;6.090;2023-02-28T09:22:03;5.72;;;2.10;;
19802;SDS011;66074;50.764;6.090;2023-02-28T09:24:29;3.00;;;2.25;;
19802;SDS011;66074;50.764;6.090;2023-02-28T09:26:56;2.08;;;1.77;;
19802;SDS011;66074;50.764;6.090;2023-02-28T09:29:22;4.35;;;2.15;;
19802;SDS011;66074;50.764;6.090;2023-02-28T09:31:48;4.10;;;2.47;;
19802;SDS011;66074;50.764;6.090;2023-02-28T09:34:14;2.63;;;1.95;;
19802;SDS011;66074;50.764;6.090;2023-02-28T09:36:40;1.75;;;1.65;;
19802;SDS011;66074;50.764;6.090;2023-02-28T09:39:06;3.53;;;2.05;;
19802;SDS011;66074;50.764;6.090;2023-02-28T09:41:36;3.17;;;2.40;;
19802;SDS011;66074;50.764;6.090;2023-02-28T09:44:10;1.83;;;1.65;;
19802;SDS011;66074;50.764;6.090;2023-02-28T09:46:46;3.88;;;1.73;;
19802;SDS011;66074;50.764;6.090;2023-02-28T09:49:18;2.47;;;1.88;;
19802;SDS011;66074;50.764;6.090;2023-02-28T09:52:04;4.28;;;2.15;;
19802;SDS011;66074;50.764;6.090;2023-02-28T09:54:35;1.95;;;1.75;;
19802;SDS011;66074;50.764;6.090;2023-02-28T10:02:01;2.95;;;2.00;;
19802;SDS011;66074;50.764;6.090;2023-02-28T10:04:59;3.55;;;1.90;;
19802;SDS011;66074;50.764;6.090;2023-02-28T10:12:53;1.90;;;1.38;;
19802;SDS011;66074;50.764;6.090;2023-02-28T10:15:21;3.47;;;1.50;;
19802;SDS011;66074;50.764;6.090;2023-02-28T10:17:53;2.08;;;1.63;;
19802;SDS011;66074;50.764;6.090;2023-02-28T10:20:23;2.00;;;1.80;;
19802;SDS011;66074;50.764;6.090;2023-02-28T10:25:32;1.73;;;1.35;;
19802;SDS011;66074;50.764;6.090;2023-02-28T10:28:13;1.50;;;1.40;;
19802;SDS011;66074;50.764;6.090;2023-02-28T10:30:50;1.48;;;1.35;;
19802;SDS011;66074;50.764;6.090;2023-02-28T10:33:19;1.48;;;1.33;;
19802;SDS011;66074;50.764;6.090;2023-02-28T10:35:48;1.83;;;1.40;;
19802;SDS011;66074;50.764;6.090;2023-02-28T10:38:16;1.25;;;1.15;;
19802;SDS011;66074;50.764;6.090;2023-02-28T10:40:50;1.33;;;1.20;;
19802;SDS011;66074;50.764;6.090;2023-02-28T10:45:55;1.65;;;1.30;;
19802;SDS011;66074;50.764;6.090;2023-02-28T10:48:29;1.38;;;1.27;;
19802;SDS011;66074;50.764;6.090;2023-02-28T10:50:59;1.20;;;1.10;;
19802;SDS011;66074;50.764;6.090;2023-02-28T10:53:33;1.73;;;1.20;;
19802;SDS011;66074;50.764;6.090;2023-02-28T10:56:15;1.40;;;1.23;;
19802;SDS011;66074;50.764;6.090;2023-02-28T11:03:49;1.67;;;1.40;;
19802;SDS011;66074;50.764;6.090;2023-02-28T11:06:36;1.80;;;1.35;;
19802;SDS011;66074;50.764;6.090;2023-02-28T11:09:05;1.33;;;1.23;;
19802;SDS011;66074;50.764;6.090;2023-02-28T11:11:49;2.75;;;1.50;;
19802;SDS011;66074;50.764;6.090;2023-02-28T11:14:19;1.75;;;1.60;;
19802;SDS011;66074;50.764;6.090;2023-02-28T11:16:48;1.80;;;1.38;;
19802;SDS011;66074;50.764;6.090;2023-02-28T11:19:27;1.40;;;1.30;;
19802;SDS011;66074;50.764;6.090;2023-02-28T11:22:00;1.40;;;1.30;;
19802;SDS011;66074;50.764;6.090;2023-02-28T11:24:29;1.75;;;1.50;;
19802;SDS011;66074;50.764;6.090;2023-02-28T11:27:02;1.77;;;1.67;;
19802;SDS011;66074;50.764;6.090;2023-02-28T11:29:30;5.45;;;1.60;;
19802;SDS011;66074;50.764;6.090;2023-02-28T11:34:26;2.63;;;1.90;;
19802;SDS011;66074;50.764;6.090;2023-02-28T11:36:53;2.03;;;1.65;;
19802;SDS011;66074;50.764;6.090;2023-02-28T11:39:21;1.55;;;1.42;;
19802;SDS011;66074;50.764;6.090;2023-02-28T11:42:01;1.60;;;1.50;;
19802;SDS011;66074;50.764;6.090;2023-02-28T11:44:49;3.15;;;1.70;;
19802;SDS011;66074;50.764;6.090;2023-02-28T11:47:29;2.00;;;1.80;;
19802;SDS011;66074;50.764;6.090;2023-02-28T11:53:04;2.05;;;1.80;;
19802;SDS011;66074;50.764;6.090;2023-02-28T11:55:42;2.00;;;1.80;;
19802;SDS011;66074;50.764;6.090;2023-02-28T12:01:31;1.70;;;1.60;;
19802;SDS011;66074;50.764;6.090;2023-02-28T12:10:24;2.13;;;1.73;;
19802;SDS011;66074;50.764;6.090;2023-02-28T12:24:27;2.30;;;2.10;;
19802;SDS011;66074;50.764;6.090;2023-02-28T12:27:02;2.08;;;1.90;;
19802;SDS011;66074;50.764;6.090;2023-02-28T12:29:39;2.05;;;1.60;;
19802;SDS011;66074;50.764;6.090;2023-02-28T12:32:38;1.55;;;1.42;;
19802;SDS011;66074;50.764;6.090;2023-02-28T12:37:46;1.88;;;1.70;;
19802;SDS011;66074;50.764;6.090;2023-02-28T12:40:25;1.90;;;1.70;;
19802;SDS011;66074;50.764;6.090;2023-02-28T12:42:58;2.70;;;1.92;;
19802;SDS011;66074;50.764;6.090;2023-02-28T12:48:42;2.25;;;1.83;;
19802;SDS011;66074;50.764;6.090;2023-02-28T12:51:11;2.88;;;1.92;;
19802;SDS011;66074;50.764;6.090;2023-02-28T12:56:37;3.80;;;1.98;;
19802;SDS011;66074;50.764;6.090;2023-02-28T12:59:23;4.00;;;1.77;;
19802;SDS011;66074;50.764;6.090;2023-02-28T13:10:48;3.33;;;2.05;;
19802;SDS011;66074;50.764;6.090;2023-02-28T13:13:29;1.92;;;1.83;;
19802;SDS011;66074;50.764;6.090;2023-02-28T13:18:31;2.22;;;1.73;;
19802;SDS011;66074;50.764;6.090;2023-02-28T13:21:02;2.45;;;1.80;;
19802;SDS011;66074;50.764;6.090;2023-02-28T13:23:38;6.82;;;1.80;;
19802;SDS011;66074;50.764;6.090;2023-02-28T13:26:17;4.20;;;1.63;;
19802;SDS011;66074;50.764;6.090;2023-02-28T13:31:19;4.82;;;2.40;;
19802;SDS011;66074;50.764;6.090;2023-02-28T13:36:27;4.13;;;1.88;;
19802;SDS011;66074;50.764;6.090;2023-02-28T13:39:01;6.60;;;2.20;;
19802;SDS011;66074;50.764;6.090;2023-02-28T13:51:47;2.72;;;2.08;;
19802;SDS011;66074;50.764;6.090;2023-02-28T13:54:27;2.58;;;1.42;;
19802;SDS011;66074;50.764;6.090;2023-02-28T14:02:46;3.70;;;1.88;;
19802;SDS011;66074;50.764;6.090;2023-02-28T14:05:27;3.15;;;1.75;;
19802;SDS011;66074;50.764;6.090;2023-02-28T14:07:56;3.53;;;1.60;;
19802;SDS011;66074;50.764;6.090;2023-02-28T14:10:33;1.67;;;1.48;;
19802;SDS011;66074;50.764;6.090;2023-02-28T14:16:05;2.15;;;1.83;;
19802;SDS011;66074;50.764;6.090;2023-02-28T14:18:33;1.60;;;1.50;;
19802;SDS011;66074;50.764;6.090;2023-02-28T14:21:11;2.03;;;1.83;;
19802;SDS011;66074;50.764;6.090;2023-02-28T14:26:31;3.55;;;1.67;;
19802;SDS011;66074;50.764;6.090;2023-02-28T14:32:13;4.05;;;1.98;;
19802;SDS011;66074;50.764;6.090;2023-02-28T14:34:52;2.45;;;1.40;;
19802;SDS011;66074;50.764;6.090;2023-02-28T14:37:26;3.03;;;1.90;;
19802;SDS011;66074;50.764;6.090;2023-02-28T14:40:01;3.30;;;1.90;;
19802;SDS011;66074;50.764;6.090;2023-02-28T14:44:59;3.35;;;2.08;;
19802;SDS011;66074;50.764;6.090;2023-02-28T14:47:30;1.85;;;1.70;;
19802;SDS011;66074;50.764;6.090;2023-02-28T14:49:58;3.20;;;1.90;;
19802;SDS011;66074;50.764;6.090;2023-02-28T14:52:28;2.95;;;1.52;;
19802;SDS011;66074;50.764;6.090;2023-02-28T14:55:00;2.00;;;1.60;;
19802;SDS011;66074;50.764;6.090;2023-02-28T14:57:33;4.50;;;1.83;;
19802;SDS011;66074;50.764;6.090;2023-02-28T15:02:37;5.18;;;1.92;;
19802;SDS011;66074;50.764;6.090;2023-02-28T15:07:48;3.33;;;1.52;;
19802;SDS011;66074;50.764;6.090;2023-02-28T15:10:25;3.67;;;1.98;;
19802;SDS011;66074;50.764;6.090;2023-02-28T15:13:02;6.70;;;2.22;;
19802;SDS011;66074;50.764;6.090;2023-02-28T15:21:11;2.60;;;2.10;;
19802;SDS011;66074;50.764;6.090;2023-02-28T15:23:40;3.75;;;2.47;;
19802;SDS011;66074;50.764;6.090;2023-02-28T15:26:12;3.13;;;2.40;;
19802;SDS011;66074;50.764;6.090;2023-02-28T15:28:41;2.92;;;2.00;;
19802;SDS011;66074;50.764;6.090;2023-02-28T15:31:25;2.80;;;2.35;;
19802;SDS011;66074;50.764;6.090;2023-02-28T15:33:54;2.55;;;2.17;;
19802;SDS011;66074;50.764;6.090;2023-02-28T15:36:23;4.32;;;2.40;;
19802;SDS011;66074;50.764;6.090;2023-02-28T15:38:52;3.08;;;2.50;;
19802;SDS011;66074;50.764;6.090;2023-02-28T15:41:24;3.25;;;2.13;;
19802;SDS011;66074;50.764;6.090;2023-02-28T15:44:13;4.70;;;3.25;;
19802;SDS011;66074;50.764;6.090;2023-02-28T15:47:01;3.22;;;3.00;;
19802;SDS011;66074;50.764;6.090;2023-02-28T15:49:30;3.30;;;3.05;;
19802;SDS011;66074;50.764;6.090;2023-02-28T15:52:03;2.72;;;2.40;;
19802;SDS011;66074;50.764;6.090;2023-02-28T15:54:30;3.40;;;2.55;;
19802;SDS011;66074;50.764;6.090;2023-02-28T15:57:12;5.95;;;3.05;;
19802;SDS011;66074;50.764;6.090;2023-02-28T15:59:45;3.17;;;2.53;;
19802;SDS011;66074;50.764;6.090;2023-02-28T16:02:21;4.25;;;2.80;;
19802;SDS011;66074;50.764;6.090;2023-02-28T16:04:58;3.28;;;2.10;;
19802;SDS011;66074;50.764;6.090;2023-02-28T16:07:24;2.63;;;2.42;;
19802;SDS011;66074;50.764;6.090;2023-02-28T16:09:50;5.68;;;3.05;;
19802;SDS011;66074;50.764;6.090;2023-02-28T16:12:16;2.97;;;2.58;;
19802;SDS011;66074;50.764;6.090;2023-02-28T16:14:42;2.72;;;2.40;;
19802;SDS011;66074;50.764;6.090;2023-02-28T16:17:16;3.53;;;2.35;;
19802;SDS011;66074;50.764;6.090;2023-02-28T16:19:48;2.35;;;2.10;;
19802;SDS011;66074;50.764;6.090;2023-02-28T16:22:14;2.85;;;2.65;;
19802;SDS011;66074;50.764;6.090;2023-02-28T16:24:39;5.07;;;2.67;;
19802;SDS011;66074;50.764;6.090;2023-02-28T16:27:05;3.88;;;2.58;;
19802;SDS011;66074;50.764;6.090;2023-02-28T16:29:35;4.07;;;2.42;;
19802;SDS011;66074;50.764;6.090;2023-02-28T16:32:04;3.30;;;2.58;;
19802;SDS011;66074;50.764;6.090;2023-02-28T16:34:30;2.50;;;2.15;;
19802;SDS011;66074;50.764;6.090;2023-02-28T16:36:56;6.60;;;2.60;;
19802;SDS011;66074;50.764;6.090;2023-02-28T16:39:21;3.78;;;2.78;;
19802;SDS011;66074;50.764;6.090;2023-02-28T16:41:48;3.13;;;2.90;;
19802;SDS011;66074;50.764;6.090;2023-02-28T16:44:48;3.97;;;3.05;;
19802;SDS011;66074;50.764;6.090;2023-02-28T16:47:08;2.65;;;2.45;;
19802;SDS011;66074;50.764;6.090;2023-02-28T16:49:35;8.48;;;2.85;;
19802;SDS011;66074;50.764;6.090;2023-02-28T16:52:01;6.35;;;3.78;;
19802;SDS011;66074;50.764;6.090;2023-02-28T16:54:26;5.30;;;2.97;;
19802;SDS011;66074;50.764;6.090;2023-02-28T16:56:52;2.95;;;2.72;;
19802;SDS011;66074;50.764;6.090;2023-02-28T16:59:19;5.05;;;2.92;;
19802;SDS011;66074;50.764;6.090;2023-02-28T17:01:50;3.90;;;2.55;;
19802;SDS011;66074;50.764;6.090;2023-02-28T17:04:16;3.75;;;2.55;;
19802;SDS011;66074;50.764;6.090;2023-02-28T17:06:42;4.18;;;3.17;;
19802;SDS011;66074;50.764;6.090;2023-02-28T17:09:09;5.80;;;3.10;;
19802;SDS011;66074;50.764;6.090;2023-02-28T17:11:41;2.75;;;2.45;;
19802;SDS011;66074;50.764;6.090;2023-02-28T17:14:06;4.07;;;3.30;;
19802;SDS011;66074;50.764;6.090;2023-02-28T17:16:33;5.35;;;2.70;;
19802;SDS011;66074;50.764;6.090;2023-02-28T17:19:04;5.75;;;2.60;;
19802;SDS011;66074;50.764;6.090;2023-02-28T17:21:30;2.90;;;2.53;;
19802;SDS011;66074;50.764;6.090;2023-02-28T17:23:58;5.13;;;2.55;;
19802;SDS011;66074;50.764;6.090;2023-02-28T17:26:23;4.15;;;2.85;;
19802;SDS011;66074;50.764;6.090;2023-02-28T17:28:50;4.93;;;2.13;;